Grant, NE (69140)

5:46 PM MDT on September 03, 2015 (GMT -0600)
Sisco Fertilizer | | Change Station
CLOSE
Current Station
Personal Weather Station
Location: Elsie, NE
Elevation: 3415 ft
Nearby Weather Stations

Elev 3415 ft 40.84 °N, 101.40 °W | Updated 5 seconds ago

Clear
Clear
92.7 °F
Feels Like 92 °F
N
9.0
Wind Variable Wind from SE
Gusts 13.0 mph

Today
High -- | Low -- °F
--% Chance of Precip.
Yesterday
High -- | Low -- °F
Precip. -- in
6:15 AM 7:16 PM
Waning Gibbous, 65% visible
Pressure 29.77 in
Visibility 10.0 miles
Clouds Clear
Heat Index 92 °F
Dew Point 58 °F
Humidity 31%
Rainfall 0.00 in
Snow Depth Not available.
UV 1 out of 12
Pollen 10.70 out of 12
Air Quality Not available.
Flu Activity Not available.
METAR KOGA 032335Z AUTO 18007KT 160V220 10SM CLR 35/11 A2977 RMK AO2 LTG DSNT N T03530108
Pressure 29.77 in
Visibility 10.0 miles
Clouds Clear
Heat Index 92 °F
Dew Point 58 °F
Humidity 31%
Rainfall 0.00 in
Snow Depth Not available.
UV 1 out of 12
Pollen 10.70 out of 12
Air Quality Not available.
Flu Activity Not available.
METAR KOGA 032335Z AUTO 18007KT 160V220 10SM CLR 35/11 A2977 RMK AO2 LTG DSNT N T03530108

10-Day Weather Forecast

×

Almanac

Astronomy

Sep. 03, 2015 Rise Set
Actual Time
Civil Twilight
Nautical Twilight
Astronomical Twilight
Moon
Length of Visible Light
Length of Day
Tomorrow will be .
, % of the Moon is Illuminated

Today's Extremes

State Highs State Lows

Community

WunderPhotos

Upload Photos

1,852,063 photos uploaded!

WunderBlogs® & News

Nearby

Air Quality

  Air Quality AQ Index Pollutant
Not available.

Snow Depth

Station Depth Elevation

Earthquake Activity

City Distance Mag. Time & Date
Minimum magnitude displayed is 2.5.

Coastal Water Temperatures

Place Temperature

Stations

Nearby Weather Stations

Station Location Temp. Windchill Dew Point Humidity Wind Precip. Elev Updated Type